sensor_id;sensor_type;location;lat;lon;timestamp;temperature;humidity
5304;DHT22;2674;49.722;10.892;2022-11-18T00:01:48;8.00;99.90
5304;DHT22;2674;49.722;10.892;2022-11-18T00:04:14;8.00;99.90
5304;DHT22;2674;49.722;10.892;2022-11-18T00:06:41;8.10;99.90
5304;DHT22;2674;49.722;10.892;2022-11-18T00:09:07;8.00;99.90
5304;DHT22;2674;49.722;10.892;2022-11-18T00:11:33;8.00;99.90
5304;DHT22;2674;49.722;10.892;2022-11-18T00:14:21;8.00;99.90
5304;DHT22;2674;49.722;10.892;2022-11-18T00:16:51;8.00;99.90
5304;DHT22;2674;49.722;10.892;2022-11-18T00:19:20;8.00;99.90
5304;DHT22;2674;49.722;10.892;2022-11-18T00:21:46;8.00;99.90
5304;DHT22;2674;49.722;10.892;2022-11-18T00:24:12;8.00;99.90
5304;DHT22;2674;49.722;10.892;2022-11-18T00:26:38;8.00;99.90
5304;DHT22;2674;49.722;10.892;2022-11-18T00:29:05;8.00;99.90
5304;DHT22;2674;49.722;10.892;2022-11-18T00:31:31;8.00;99.90
5304;DHT22;2674;49.722;10.892;2022-11-18T00:33:56;8.00;99.90
5304;DHT22;2674;49.722;10.892;2022-11-18T00:36:22;8.00;99.90
5304;DHT22;2674;49.722;10.892;2022-11-18T00:38:48;8.00;99.90
5304;DHT22;2674;49.722;10.892;2022-11-18T00:41:14;8.00;99.90
5304;DHT22;2674;49.722;10.892;2022-11-18T00:43:41;8.00;99.90
5304;DHT22;2674;49.722;10.892;2022-11-18T01:46:51;8.00;99.90
5304;DHT22;2674;49.722;10.892;2022-11-18T01:49:17;8.00;99.90
5304;DHT22;2674;49.722;10.892;2022-11-18T01:51:50;8.00;99.90
5304;DHT22;2674;49.722;10.892;2022-11-18T01:54:24;8.00;99.90
5304;DHT22;2674;49.722;10.892;2022-11-18T01:56:54;8.00;99.90
5304;DHT22;2674;49.722;10.892;2022-11-18T01:59:26;8.00;99.90
5304;DHT22;2674;49.722;10.892;2022-11-18T02:01:54;8.00;99.90
5304;DHT22;2674;49.722;10.892;2022-11-18T02:04:47;8.00;99.90
5304;DHT22;2674;49.722;10.892;2022-11-18T02:07:15;8.00;99.90
5304;DHT22;2674;49.722;10.892;2022-11-18T02:09:42;8.00;99.90
5304;DHT22;2674;49.722;10.892;2022-11-18T02:12:09;7.50;99.90
5304;DHT22;2674;49.722;10.892;2022-11-18T02:14:39;8.10;99.90
5304;DHT22;2674;49.722;10.892;2022-11-18T02:20:25;7.80;99.90
5304;DHT22;2674;49.722;10.892;2022-11-18T03:46:12;7.80;99.90
5304;DHT22;2674;49.722;10.892;2022-11-18T03:48:51;7.70;99.90
5304;DHT22;2674;49.722;10.892;2022-11-18T03:51:23;7.80;99.90
5304;DHT22;2674;49.722;10.892;2022-11-18T03:54:11;7.70;99.90
5304;DHT22;2674;49.722;10.892;2022-11-18T03:56:43;7.80;99.90
5304;DHT22;2674;49.722;10.892;2022-11-18T03:59:23;7.80;99.90
5304;DHT22;2674;49.722;10.892;2022-11-18T04:02:07;7.70;99.90
5304;DHT22;2674;49.722;10.892;2022-11-18T04:04:35;7.80;99.90
5304;DHT22;2674;49.722;10.892;2022-11-18T04:09:31;7.70;99.90
5304;DHT22;2674;49.722;10.892;2022-11-18T04:12:03;7.80;99.90
5304;DHT22;2674;49.722;10.892;2022-11-18T04:14:33;7.70;99.90
5304;DHT22;2674;49.722;10.892;2022-11-18T04:17:02;7.80;99.90
5304;DHT22;2674;49.722;10.892;2022-11-18T04:19:29;7.80;99.90
5304;DHT22;2674;49.722;10.892;2022-11-18T04:21:55;7.80;99.90
5304;DHT22;2674;49.722;10.892;2022-11-18T04:24:21;7.80;99.90
5304;DHT22;2674;49.722;10.892;2022-11-18T04:26:47;7.80;99.90
5304;DHT22;2674;49.722;10.892;2022-11-18T04:29:13;7.80;99.90
5304;DHT22;2674;49.722;10.892;2022-11-18T04:31:39;7.80;99.90
5304;DHT22;2674;49.722;10.892;2022-11-18T04:34:05;7.80;99.90
5304;DHT22;2674;49.722;10.892;2022-11-18T04:36:30;7.80;99.90
5304;DHT22;2674;49.722;10.892;2022-11-18T04:38:56;7.80;99.90
5304;DHT22;2674;49.722;10.892;2022-11-18T04:41:22;7.80;99.90
5304;DHT22;2674;49.722;10.892;2022-11-18T04:44:08;7.80;99.90
5304;DHT22;2674;49.722;10.892;2022-11-18T04:46:41;7.80;99.90
5304;DHT22;2674;49.722;10.892;2022-11-18T04:49:08;7.80;99.90
5304;DHT22;2674;49.722;10.892;2022-11-18T04:51:34;7.80;99.90
5304;DHT22;2674;49.722;10.892;2022-11-18T04:54:00;7.80;99.90
5304;DHT22;2674;49.722;10.892;2022-11-18T04:56:26;7.80;99.90
5304;DHT22;2674;49.722;10.892;2022-11-18T04:58:52;7.80;99.90
5304;DHT22;2674;49.722;10.892;2022-11-18T05:01:18;7.70;99.90
5304;DHT22;2674;49.722;10.892;2022-11-18T05:03:44;7.80;99.90
5304;DHT22;2674;49.722;10.892;2022-11-18T05:06:10;7.80;99.90
5304;DHT22;2674;49.722;10.892;2022-11-18T05:08:36;7.70;99.90
5304;DHT22;2674;49.722;10.892;2022-11-18T05:11:06;7.70;99.90
5304;DHT22;2674;49.722;10.892;2022-11-18T05:13:51;7.80;99.90
5304;DHT22;2674;49.722;10.892;2022-11-18T05:16:17;7.80;99.90
5304;DHT22;2674;49.722;10.892;2022-11-18T05:18:43;7.80;99.90
5304;DHT22;2674;49.722;10.892;2022-11-18T05:21:09;7.80;99.90
5304;DHT22;2674;49.722;10.892;2022-11-18T05:23:35;7.80;99.90
5304;DHT22;2674;49.722;10.892;2022-11-18T05:26:05;7.80;99.90
5304;DHT22;2674;49.722;10.892;2022-11-18T05:28:32;7.80;99.90
5304;DHT22;2674;49.722;10.892;2022-11-18T05:30:58;7.80;99.90
5304;DHT22;2674;49.722;10.892;2022-11-18T05:33:24;7.80;99.90
5304;DHT22;2674;49.722;10.892;2022-11-18T05:35:50;7.80;99.90
5304;DHT22;2674;49.722;10.892;2022-11-18T05:38:16;7.80;99.90
5304;DHT22;2674;49.722;10.892;2022-11-18T05:40:42;7.70;99.90
5304;DHT22;2674;49.722;10.892;2022-11-18T05:43:09;7.80;99.90
5304;DHT22;2674;49.722;10.892;2022-11-18T05:45:43;7.80;99.90
5304;DHT22;2674;49.722;10.892;2022-11-18T05:48:08;7.80;99.90
5304;DHT22;2674;49.722;10.892;2022-11-18T05:50:37;7.80;99.90
5304;DHT22;2674;49.722;10.892;2022-11-18T05:53:03;7.80;99.90
5304;DHT22;2674;49.722;10.892;2022-11-18T05:55:36;7.80;99.90
5304;DHT22;2674;49.722;10.892;2022-11-18T05:58:04;7.80;99.90
5304;DHT22;2674;49.722;10.892;2022-11-18T06:00:30;7.80;99.90
5304;DHT22;2674;49.722;10.892;2022-11-18T06:02:57;7.80;99.90
5304;DHT22;2674;49.722;10.892;2022-11-18T06:05:25;7.80;99.90
5304;DHT22;2674;49.722;10.892;2022-11-18T06:07:53;7.90;99.90
5304;DHT22;2674;49.722;10.892;2022-11-18T06:10:26;7.80;99.90
5304;DHT22;2674;49.722;10.892;2022-11-18T06:12:57;7.90;99.90
5304;DHT22;2674;49.722;10.892;2022-11-18T06:15:30;7.80;99.90
5304;DHT22;2674;49.722;10.892;2022-11-18T06:18:01;7.90;99.90
5304;DHT22;2674;49.722;10.892;2022-11-18T06:20:28;7.80;99.90
5304;DHT22;2674;49.722;10.892;2022-11-18T06:22:56;7.90;99.90
5304;DHT22;2674;49.722;10.892;2022-11-18T06:25:23;7.90;99.90
5304;DHT22;2674;49.722;10.892;2022-11-18T06:27:51;7.90;99.90
5304;DHT22;2674;49.722;10.892;2022-11-18T06:30:18;7.90;99.90
5304;DHT22;2674;49.722;10.892;2022-11-18T06:32:44;7.90;99.90
5304;DHT22;2674;49.722;10.892;2022-11-18T06:35:10;7.90;99.90
5304;DHT22;2674;49.722;10.892;2022-11-18T06:37:36;7.90;99.90
5304;DHT22;2674;49.722;10.892;2022-11-18T06:40:02;7.80;99.90
5304;DHT22;2674;49.722;10.892;2022-11-18T06:42:28;7.90;99.90
5304;DHT22;2674;49.722;10.892;2022-11-18T06:45:13;7.90;99.90
5304;DHT22;2674;49.722;10.892;2022-11-18T06:47:39;7.90;99.90
5304;DHT22;2674;49.722;10.892;2022-11-18T06:50:05;7.90;99.90
5304;DHT22;2674;49.722;10.892;2022-11-18T06:52:31;7.90;99.90
5304;DHT22;2674;49.722;10.892;2022-11-18T06:54:57;7.90;99.90
5304;DHT22;2674;49.722;10.892;2022-11-18T06:57:23;7.90;99.90
5304;DHT22;2674;49.722;10.892;2022-11-18T06:59:48;7.90;99.90
5304;DHT22;2674;49.722;10.892;2022-11-18T07:02:14;7.90;99.90
5304;DHT22;2674;49.722;10.892;2022-11-18T07:04:43;7.90;99.90
5304;DHT22;2674;49.722;10.892;2022-11-18T07:07:10;7.90;99.90
5304;DHT22;2674;49.722;10.892;2022-11-18T07:09:36;7.90;99.90
5304;DHT22;2674;49.722;10.892;2022-11-18T07:12:03;7.90;99.90
5304;DHT22;2674;49.722;10.892;2022-11-18T07:14:30;7.90;99.90
5304;DHT22;2674;49.722;10.892;2022-11-18T07:16:56;7.90;99.90
5304;DHT22;2674;49.722;10.892;2022-11-18T07:19:22;7.90;99.90
5304;DHT22;2674;49.722;10.892;2022-11-18T07:21:48;7.90;99.90
5304;DHT22;2674;49.722;10.892;2022-11-18T07:24:14;7.90;99.90
5304;DHT22;2674;49.722;10.892;2022-11-18T07:26:41;7.90;99.90
5304;DHT22;2674;49.722;10.892;2022-11-18T07:29:08;7.90;99.90
5304;DHT22;2674;49.722;10.892;2022-11-18T07:31:35;7.90;99.90
5304;DHT22;2674;49.722;10.892;2022-11-18T07:34:05;7.90;99.90
5304;DHT22;2674;49.722;10.892;2022-11-18T07:36:31;7.90;99.90
5304;DHT22;2674;49.722;10.892;2022-11-18T07:39:00;7.90;99.90
5304;DHT22;2674;49.722;10.892;2022-11-18T07:41:28;7.90;99.90
5304;DHT22;2674;49.722;10.892;2022-11-18T07:43:56;7.90;99.90
5304;DHT22;2674;49.722;10.892;2022-11-18T07:46:32;7.80;99.90
5304;DHT22;2674;49.722;10.892;2022-11-18T07:49:00;7.90;99.90
5304;DHT22;2674;49.722;10.892;2022-11-18T07:51:28;7.90;99.90
5304;DHT22;2674;49.722;10.892;2022-11-18T07:53:58;7.90;99.90
5304;DHT22;2674;49.722;10.892;2022-11-18T07:56:23;7.90;99.90
5304;DHT22;2674;49.722;10.892;2022-11-18T07:58:54;7.90;99.90
5304;DHT22;2674;49.722;10.892;2022-11-18T08:01:21;7.90;99.90
5304;DHT22;2674;49.722;10.892;2022-11-18T08:03:48;7.90;99.90
5304;DHT22;2674;49.722;10.892;2022-11-18T08:06:16;7.90;99.90
5304;DHT22;2674;49.722;10.892;2022-11-18T08:08:42;7.90;99.90
5304;DHT22;2674;49.722;10.892;2022-11-18T08:11:11;7.90;99.90
5304;DHT22;2674;49.722;10.892;2022-11-18T08:13:37;7.90;99.90
5304;DHT22;2674;49.722;10.892;2022-11-18T08:16:04;7.90;99.90
5304;DHT22;2674;49.722;10.892;2022-11-18T08:18:36;7.90;99.90
5304;DHT22;2674;49.722;10.892;2022-11-18T08:21:02;7.90;99.90
5304;DHT22;2674;49.722;10.892;2022-11-18T08:23:29;8.00;99.90
5304;DHT22;2674;49.722;10.892;2022-11-18T08:26:07;8.00;99.90
5304;DHT22;2674;49.722;10.892;2022-11-18T08:28:33;8.00;99.90
5304;DHT22;2674;49.722;10.892;2022-11-18T08:30:59;8.00;99.90
5304;DHT22;2674;49.722;10.892;2022-11-18T08:33:33;8.00;99.90
5304;DHT22;2674;49.722;10.892;2022-11-18T08:36:08;8.00;99.90
5304;DHT22;2674;49.722;10.892;2022-11-18T08:38:34;8.10;99.90
5304;DHT22;2674;49.722;10.892;2022-11-18T08:41:03;8.10;99.90
5304;DHT22;2674;49.722;10.892;2022-11-18T08:43:31;8.00;99.90
5304;DHT22;2674;49.722;10.892;2022-11-18T08:45:57;8.00;99.90
5304;DHT22;2674;49.722;10.892;2022-11-18T08:48:26;8.00;99.90
5304;DHT22;2674;49.722;10.892;2022-11-18T08:50:52;8.00;99.90
5304;DHT22;2674;49.722;10.892;2022-11-18T08:53:19;8.00;99.90
5304;DHT22;2674;49.722;10.892;2022-11-18T08:55:45;7.90;99.90
5304;DHT22;2674;49.722;10.892;2022-11-18T08:58:11;7.90;99.90
5304;DHT22;2674;49.722;10.892;2022-11-18T09:00:37;7.90;99.90
5304;DHT22;2674;49.722;10.892;2022-11-18T09:03:03;8.00;99.90
5304;DHT22;2674;49.722;10.892;2022-11-18T09:05:29;8.00;99.90
5304;DHT22;2674;49.722;10.892;2022-11-18T09:07:55;8.00;99.90
5304;DHT22;2674;49.722;10.892;2022-11-18T09:10:21;8.00;99.90
5304;DHT22;2674;49.722;10.892;2022-11-18T09:12:47;8.00;99.90
5304;DHT22;2674;49.722;10.892;2022-11-18T09:15:12;8.00;99.90
5304;DHT22;2674;49.722;10.892;2022-11-18T09:17:38;8.00;99.90
5304;DHT22;2674;49.722;10.892;2022-11-18T09:20:04;8.00;99.90
5304;DHT22;2674;49.722;10.892;2022-11-18T09:22:30;8.10;99.90
5304;DHT22;2674;49.722;10.892;2022-11-18T09:24:56;8.10;99.90
5304;DHT22;2674;49.722;10.892;2022-11-18T09:27:22;8.10;99.90
5304;DHT22;2674;49.722;10.892;2022-11-18T09:29:48;8.10;99.90
5304;DHT22;2674;49.722;10.892;2022-11-18T09:32:14;8.10;99.90
5304;DHT22;2674;49.722;10.892;2022-11-18T09:34:40;8.10;99.90
5304;DHT22;2674;49.722;10.892;2022-11-18T09:37:06;8.10;99.90
5304;DHT22;2674;49.722;10.892;2022-11-18T09:39:35;8.10;99.90
5304;DHT22;2674;49.722;10.892;2022-11-18T09:42:16;8.20;99.90
5304;DHT22;2674;49.722;10.892;2022-11-18T09:49:53;8.20;99.90
5304;DHT22;2674;49.722;10.892;2022-11-18T09:52:29;8.20;99.90
5304;DHT22;2674;49.722;10.892;2022-11-18T09:54:59;8.20;99.90
5304;DHT22;2674;49.722;10.892;2022-11-18T09:59:59;8.30;99.90
5304;DHT22;2674;49.722;10.892;2022-11-18T10:02:40;8.30;99.90
5304;DHT22;2674;49.722;10.892;2022-11-18T10:05:22;8.30;99.90
5304;DHT22;2674;49.722;10.892;2022-11-18T10:13:23;8.30;99.90
5304;DHT22;2674;49.722;10.892;2022-11-18T10:15:57;8.30;99.90
5304;DHT22;2674;49.722;10.892;2022-11-18T10:22:13;8.30;99.90
5304;DHT22;2674;49.722;10.892;2022-11-18T10:24:42;8.30;99.90
5304;DHT22;2674;49.722;10.892;2022-11-18T10:27:13;8.30;99.90
5304;DHT22;2674;49.722;10.892;2022-11-18T10:29:40;8.30;99.90
5304;DHT22;2674;49.722;10.892;2022-11-18T10:32:14;8.30;99.90
5304;DHT22;2674;49.722;10.892;2022-11-18T10:35:19;8.30;99.90
5304;DHT22;2674;49.722;10.892;2022-11-18T10:40:55;8.30;99.90
5304;DHT22;2674;49.722;10.892;2022-11-18T10:43:41;8.30;99.90
5304;DHT22;2674;49.722;10.892;2022-11-18T10:46:35;8.40;99.90
5304;DHT22;2674;49.722;10.892;2022-11-18T10:49:24;8.30;99.90
5304;DHT22;2674;49.722;10.892;2022-11-18T10:52:09;8.40;99.90
5304;DHT22;2674;49.722;10.892;2022-11-18T10:54:36;8.40;99.90
5304;DHT22;2674;49.722;10.892;2022-11-18T10:57:21;8.40;99.90
5304;DHT22;2674;49.722;10.892;2022-11-18T10:59:54;8.40;99.90
5304;DHT22;2674;49.722;10.892;2022-11-18T11:02:28;8.50;99.90
5304;DHT22;2674;49.722;10.892;2022-11-18T11:05:00;8.40;99.90
5304;DHT22;2674;49.722;10.892;2022-11-18T11:07:37;8.50;99.90
5304;DHT22;2674;49.722;10.892;2022-11-18T11:12:34;8.50;99.90
5304;DHT22;2674;49.722;10.892;2022-11-18T11:15:14;8.50;99.90
5304;DHT22;2674;49.722;10.892;2022-11-18T11:20:35;8.60;99.90
5304;DHT22;2674;49.722;10.892;2022-11-18T11:23:08;8.60;99.90
5304;DHT22;2674;49.722;10.892;2022-11-18T11:25:42;8.60;99.90
5304;DHT22;2674;49.722;10.892;2022-11-18T11:28:27;8.70;99.90
5304;DHT22;2674;49.722;10.892;2022-11-18T11:36:24;8.70;99.90
5304;DHT22;2674;49.722;10.892;2022-11-18T11:41:24;8.70;99.90
5304;DHT22;2674;49.722;10.892;2022-11-18T11:53:02;8.70;99.90
5304;DHT22;2674;49.722;10.892;2022-11-18T11:58:52;8.70;99.90
5304;DHT22;2674;49.722;10.892;2022-11-18T12:06:55;8.70;99.90
5304;DHT22;2674;49.722;10.892;2022-11-18T12:20:45;8.80;99.90
5304;DHT22;2674;49.722;10.892;2022-11-18T12:23:20;8.70;99.90
5304;DHT22;2674;49.722;10.892;2022-11-18T12:28:27;8.70;99.90
5304;DHT22;2674;49.722;10.892;2022-11-18T12:33:50;8.70;99.90
5304;DHT22;2674;49.722;10.892;2022-11-18T12:36:38;8.70;99.90
5304;DHT22;2674;49.722;10.892;2022-11-18T12:41:59;8.70;99.90
5304;DHT22;2674;49.722;10.892;2022-11-18T12:44:46;8.70;99.90
5304;DHT22;2674;49.722;10.892;2022-11-18T12:55:01;8.80;99.90
5304;DHT22;2674;49.722;10.892;2022-11-18T12:57:32;8.80;99.90
5304;DHT22;2674;49.722;10.892;2022-11-18T13:00:13;8.90;99.90
5304;DHT22;2674;49.722;10.892;2022-11-18T13:02:50;8.90;99.90
5304;DHT22;2674;49.722;10.892;2022-11-18T13:05:23;9.00;99.90
5304;DHT22;2674;49.722;10.892;2022-11-18T13:07:53;9.00;99.90
5304;DHT22;2674;49.722;10.892;2022-11-18T13:11:15;9.10;99.90
5304;DHT22;2674;49.722;10.892;2022-11-18T13:14:00;9.10;99.90
5304;DHT22;2674;49.722;10.892;2022-11-18T13:16:45;9.20;99.90
5304;DHT22;2674;49.722;10.892;2022-11-18T13:19:55;9.30;99.90
5304;DHT22;2674;49.722;10.892;2022-11-18T13:22:21;9.20;99.90
5304;DHT22;2674;49.722;10.892;2022-11-18T13:25:24;9.20;99.90
5304;DHT22;2674;49.722;10.892;2022-11-18T13:30:24;9.20;99.90
5304;DHT22;2674;49.722;10.892;2022-11-18T13:32:51;9.20;99.90
5304;DHT22;2674;49.722;10.892;2022-11-18T13:35:21;9.10;99.90
5304;DHT22;2674;49.722;10.892;2022-11-18T13:38:18;9.10;99.90
5304;DHT22;2674;49.722;10.892;2022-11-18T13:40:45;9.10;99.90
5304;DHT22;2674;49.722;10.892;2022-11-18T13:43:36;9.10;99.90
5304;DHT22;2674;49.722;10.892;2022-11-18T13:46:17;9.10;99.90
5304;DHT22;2674;49.722;10.892;2022-11-18T13:48:52;9.10;99.90
5304;DHT22;2674;49.722;10.892;2022-11-18T13:51:20;9.10;99.90
5304;DHT22;2674;49.722;10.892;2022-11-18T13:53:47;9.10;99.90
5304;DHT22;2674;49.722;10.892;2022-11-18T13:56:18;9.00;99.90
5304;DHT22;2674;49.722;10.892;2022-11-18T13:58:52;9.00;99.90
5304;DHT22;2674;49.722;10.892;2022-11-18T14:01:24;9.00;99.90
5304;DHT22;2674;49.722;10.892;2022-11-18T14:03:52;9.00;99.90
5304;DHT22;2674;49.722;10.892;2022-11-18T14:06:39;9.00;99.90
5304;DHT22;2674;49.722;10.892;2022-11-18T14:09:25;9.00;99.90
5304;DHT22;2674;49.722;10.892;2022-11-18T14:14:40;8.90;99.90
5304;DHT22;2674;49.722;10.892;2022-11-18T14:17:22;8.90;99.90
5304;DHT22;2674;49.722;10.892;2022-11-18T14:19:51;8.90;99.90
5304;DHT22;2674;49.722;10.892;2022-11-18T14:22:24;8.90;99.90
5304;DHT22;2674;49.722;10.892;2022-11-18T14:24:58;8.90;99.90
5304;DHT22;2674;49.722;10.892;2022-11-18T14:27:33;8.80;99.90
5304;DHT22;2674;49.722;10.892;2022-11-18T14:29:58;8.80;99.90
5304;DHT22;2674;49.722;10.892;2022-11-18T14:32:25;8.70;99.90
5304;DHT22;2674;49.722;10.892;2022-11-18T14:34:58;8.70;99.90
5304;DHT22;2674;49.722;10.892;2022-11-18T14:37:25;8.70;99.90
5304;DHT22;2674;49.722;10.892;2022-11-18T14:39:56;8.70;99.90
5304;DHT22;2674;49.722;10.892;2022-11-18T14:42:23;8.60;99.90
5304;DHT22;2674;49.722;10.892;2022-11-18T14:44:49;8.60;99.90
5304;DHT22;2674;49.722;10.892;2022-11-18T14:47:27;8.60;99.90
5304;DHT22;2674;49.722;10.892;2022-11-18T14:49:54;8.60;99.90
5304;DHT22;2674;49.722;10.892;2022-11-18T14:52:20;8.60;99.90
5304;DHT22;2674;49.722;10.892;2022-11-18T14:54:46;8.50;99.90
5304;DHT22;2674;49.722;10.892;2022-11-18T14:57:15;8.50;99.90
5304;DHT22;2674;49.722;10.892;2022-11-18T14:59:41;8.50;99.90
5304;DHT22;2674;49.722;10.892;2022-11-18T15:02:15;8.50;99.90
5304;DHT22;2674;49.722;10.892;2022-11-18T15:04:42;8.50;99.90
5304;DHT22;2674;49.722;10.892;2022-11-18T15:07:13;8.40;99.90
5304;DHT22;2674;49.722;10.892;2022-11-18T15:09:40;8.40;99.90
5304;DHT22;2674;49.722;10.892;2022-11-18T15:12:06;8.40;99.90
5304;DHT22;2674;49.722;10.892;2022-11-18T15:14:34;8.40;99.90
5304;DHT22;2674;49.722;10.892;2022-11-18T15:17:01;8.40;99.90
5304;DHT22;2674;49.722;10.892;2022-11-18T15:19:26;8.40;99.90
5304;DHT22;2674;49.722;10.892;2022-11-18T15:21:52;8.30;99.90
5304;DHT22;2674;49.722;10.892;2022-11-18T15:24:18;8.30;99.90
5304;DHT22;2674;49.722;10.892;2022-11-18T15:26:45;8.30;99.90
5304;DHT22;2674;49.722;10.892;2022-11-18T15:29:22;8.30;99.90
5304;DHT22;2674;49.722;10.892;2022-11-18T15:31:49;8.20;99.90
5304;DHT22;2674;49.722;10.892;2022-11-18T15:34:18;8.20;99.90
5304;DHT22;2674;49.722;10.892;2022-11-18T15:36:44;8.20;99.90
5304;DHT22;2674;49.722;10.892;2022-11-18T15:39:11;8.20;99.90
5304;DHT22;2674;49.722;10.892;2022-11-18T15:41:39;8.20;99.90
5304;DHT22;2674;49.722;10.892;2022-11-18T15:44:05;8.20;99.90
5304;DHT22;2674;49.722;10.892;2022-11-18T15:46:31;8.20;99.90
5304;DHT22;2674;49.722;10.892;2022-11-18T15:49:00;8.20;99.90
5304;DHT22;2674;49.722;10.892;2022-11-18T15:51:28;8.20;99.90
5304;DHT22;2674;49.722;10.892;2022-11-18T15:53:54;8.20;99.90
5304;DHT22;2674;49.722;10.892;2022-11-18T15:59:03;8.10;99.90
5304;DHT22;2674;49.722;10.892;2022-11-18T16:01:32;8.10;99.90
5304;DHT22;2674;49.722;10.892;2022-11-18T16:03:58;8.00;99.90
5304;DHT22;2674;49.722;10.892;2022-11-18T16:06:25;8.00;99.90
5304;DHT22;2674;49.722;10.892;2022-11-18T16:08:52;7.90;99.90
5304;DHT22;2674;49.722;10.892;2022-11-18T16:11:18;7.90;99.90
5304;DHT22;2674;49.722;10.892;2022-11-18T16:14:04;7.90;99.90
5304;DHT22;2674;49.722;10.892;2022-11-18T16:16:31;7.80;99.90
5304;DHT22;2674;49.722;10.892;2022-11-18T16:19:01;7.70;99.90
5304;DHT22;2674;49.722;10.892;2022-11-18T16:21:31;7.70;99.90
5304;DHT22;2674;49.722;10.892;2022-11-18T16:23:59;7.70;99.90
5304;DHT22;2674;49.722;10.892;2022-11-18T16:26:29;7.70;99.90
5304;DHT22;2674;49.722;10.892;2022-11-18T16:28:56;7.60;99.90
5304;DHT22;2674;49.722;10.892;2022-11-18T16:31:22;7.60;99.90
5304;DHT22;2674;49.722;10.892;2022-11-18T16:34:14;7.60;99.90
5304;DHT22;2674;49.722;10.892;2022-11-18T16:36:46;7.60;99.90
5304;DHT22;2674;49.722;10.892;2022-11-18T16:39:17;7.50;99.90
5304;DHT22;2674;49.722;10.892;2022-11-18T16:41:44;7.50;99.90
5304;DHT22;2674;49.722;10.892;2022-11-18T16:44:13;7.50;99.90
5304;DHT22;2674;49.722;10.892;2022-11-18T16:46:40;7.50;99.90
5304;DHT22;2674;49.722;10.892;2022-11-18T16:49:10;7.40;99.90
5304;DHT22;2674;49.722;10.892;2022-11-18T16:51:39;7.50;99.90
5304;DHT22;2674;49.722;10.892;2022-11-18T16:54:07;7.40;99.90
5304;DHT22;2674;49.722;10.892;2022-11-18T16:56:39;7.40;99.90
5304;DHT22;2674;49.722;10.892;2022-11-18T16:59:10;7.40;99.90
5304;DHT22;2674;49.722;10.892;2022-11-18T17:01:36;7.30;99.90
5304;DHT22;2674;49.722;10.892;2022-11-18T17:04:02;7.30;99.90
5304;DHT22;2674;49.722;10.892;2022-11-18T17:06:37;7.30;99.90
5304;DHT22;2674;49.722;10.892;2022-11-18T17:09:04;7.30;99.90
5304;DHT22;2674;49.722;10.892;2022-11-18T17:11:30;7.30;99.90
5304;DHT22;2674;49.722;10.892;2022-11-18T17:13:56;7.30;99.90
5304;DHT22;2674;49.722;10.892;2022-11-18T17:16:22;7.30;99.90
5304;DHT22;2674;49.722;10.892;2022-11-18T17:18:53;7.30;99.90
5304;DHT22;2674;49.722;10.892;2022-11-18T17:21:20;7.30;99.90
5304;DHT22;2674;49.722;10.892;2022-11-18T17:23:47;7.30;99.90
5304;DHT22;2674;49.722;10.892;2022-11-18T17:26:15;7.30;99.90
5304;DHT22;2674;49.722;10.892;2022-11-18T17:28:42;7.30;99.90
5304;DHT22;2674;49.722;10.892;2022-11-18T17:31:10;7.30;99.90
5304;DHT22;2674;49.722;10.892;2022-11-18T17:33:39;7.30;99.90
5304;DHT22;2674;49.722;10.892;2022-11-18T17:36:11;7.30;99.90
5304;DHT22;2674;49.722;10.892;2022-11-18T17:38:39;7.30;99.90
5304;DHT22;2674;49.722;10.892;2022-11-18T17:41:07;7.30;99.90
5304;DHT22;2674;49.722;10.892;2022-11-18T17:43:33;7.30;99.90
5304;DHT22;2674;49.722;10.892;2022-11-18T17:46:00;7.30;99.90
5304;DHT22;2674;49.722;10.892;2022-11-18T17:48:28;7.30;99.90
5304;DHT22;2674;49.722;10.892;2022-11-18T17:51:04;7.30;99.90
5304;DHT22;2674;49.722;10.892;2022-11-18T17:53:30;7.30;99.90
5304;DHT22;2674;49.722;10.892;2022-11-18T17:55:57;7.30;99.90
5304;DHT22;2674;49.722;10.892;2022-11-18T17:58:23;7.20;99.90
5304;DHT22;2674;49.722;10.892;2022-11-18T18:00:49;7.20;99.90
5304;DHT22;2674;49.722;10.892;2022-11-18T18:03:15;7.20;99.90
5304;DHT22;2674;49.722;10.892;2022-11-18T18:05:41;7.10;99.90
5304;DHT22;2674;49.722;10.892;2022-11-18T18:08:06;7.10;99.90
5304;DHT22;2674;49.722;10.892;2022-11-18T18:10:37;7.10;99.90
5304;DHT22;2674;49.722;10.892;2022-11-18T18:13:05;7.10;99.90
5304;DHT22;2674;49.722;10.892;2022-11-18T18:15:58;7.10;99.90
5304;DHT22;2674;49.722;10.892;2022-11-18T18:18:24;7.10;99.90
5304;DHT22;2674;49.722;10.892;2022-11-18T18:20:50;7.00;99.90
5304;DHT22;2674;49.722;10.892;2022-11-18T18:23:16;7.10;99.90
5304;DHT22;2674;49.722;10.892;2022-11-18T18:25:42;7.00;99.90
5304;DHT22;2674;49.722;10.892;2022-11-18T18:28:08;7.00;99.90
5304;DHT22;2674;49.722;10.892;2022-11-18T18:30:34;7.00;99.90
5304;DHT22;2674;49.722;10.892;2022-11-18T18:32:59;6.90;99.90
5304;DHT22;2674;49.722;10.892;2022-11-18T18:35:25;6.90;99.90
5304;DHT22;2674;49.722;10.892;2022-11-18T18:37:51;6.80;99.90
5304;DHT22;2674;49.722;10.892;2022-11-18T18:40:17;6.80;99.90
5304;DHT22;2674;49.722;10.892;2022-11-18T18:42:43;6.70;99.90
5304;DHT22;2674;49.722;10.892;2022-11-18T18:45:09;6.80;99.90
5304;DHT22;2674;49.722;10.892;2022-11-18T18:48:03;6.70;99.90
5304;DHT22;2674;49.722;10.892;2022-11-18T18:50:31;6.60;99.90
5304;DHT22;2674;49.722;10.892;2022-11-18T18:52:56;6.60;99.90
5304;DHT22;2674;49.722;10.892;2022-11-18T18:55:22;6.50;99.90
5304;DHT22;2674;49.722;10.892;2022-11-18T18:57:51;6.50;99.90
5304;DHT22;2674;49.722;10.892;2022-11-18T19:00:21;6.30;99.90
5304;DHT22;2674;49.722;10.892;2022-11-18T19:02:47;6.30;99.90
5304;DHT22;2674;49.722;10.892;2022-11-18T19:05:13;6.20;99.90
5304;DHT22;2674;49.722;10.892;2022-11-18T19:07:48;6.20;99.90
5304;DHT22;2674;49.722;10.892;2022-11-18T19:10:14;6.00;99.90
5304;DHT22;2674;49.722;10.892;2022-11-18T19:12:40;6.00;99.90
5304;DHT22;2674;49.722;10.892;2022-11-18T19:15:12;5.90;99.90
5304;DHT22;2674;49.722;10.892;2022-11-18T19:17:41;5.80;99.90
5304;DHT22;2674;49.722;10.892;2022-11-18T19:20:09;5.70;99.90
5304;DHT22;2674;49.722;10.892;2022-11-18T19:22:53;5.60;99.90
5304;DHT22;2674;49.722;10.892;2022-11-18T19:25:19;5.60;99.90
5304;DHT22;2674;49.722;10.892;2022-11-18T19:27:45;5.60;99.90
5304;DHT22;2674;49.722;10.892;2022-11-18T19:30:11;5.60;99.90
5304;DHT22;2674;49.722;10.892;2022-11-18T19:32:38;5.60;99.90
5304;DHT22;2674;49.722;10.892;2022-11-18T19:35:06;5.50;99.90
5304;DHT22;2674;49.722;10.892;2022-11-18T19:37:32;5.50;99.90
5304;DHT22;2674;49.722;10.892;2022-11-18T19:39:58;5.50;99.90
5304;DHT22;2674;49.722;10.892;2022-11-18T19:42:27;5.50;99.90
5304;DHT22;2674;49.722;10.892;2022-11-18T19:44:53;5.50;99.90
5304;DHT22;2674;49.722;10.892;2022-11-18T19:47:19;5.50;99.90
5304;DHT22;2674;49.722;10.892;2022-11-18T19:49:45;5.40;99.90
5304;DHT22;2674;49.722;10.892;2022-11-18T19:52:11;5.40;99.90
5304;DHT22;2674;49.722;10.892;2022-11-18T19:54:38;5.30;99.90
5304;DHT22;2674;49.722;10.892;2022-11-18T19:57:04;5.30;99.90
5304;DHT22;2674;49.722;10.892;2022-11-18T19:59:30;5.30;99.90
5304;DHT22;2674;49.722;10.892;2022-11-18T20:01:56;5.30;99.90
5304;DHT22;2674;49.722;10.892;2022-11-18T20:04:22;5.20;99.90
5304;DHT22;2674;49.722;10.892;2022-11-18T20:06:48;5.20;99.90
5304;DHT22;2674;49.722;10.892;2022-11-18T20:09:14;5.10;99.90
5304;DHT22;2674;49.722;10.892;2022-11-18T20:11:42;4.90;99.90
5304;DHT22;2674;49.722;10.892;2022-11-18T20:14:10;4.90;99.90
5304;DHT22;2674;49.722;10.892;2022-11-18T20:16:36;4.80;99.90